Flight Track Log - Related Links

Times and Time Zones

All times are in EDT time to prevent confusion due to time zone crossing. See the THY1041 flight status page for this flight to view local times or setup timezone preferences in your user account.

Time Position Orientation Groundspeed Altitude Reporting Facility
EDT Latitude Longitude Course Direction KTS MPH feet Rate Location/Type
Mon 04:09:00 PM 41.5634 28.4017 332° Northwest  Level Estimated
Mon 04:10:00 PM 41.6610 28.3311 332° Northwest  Level Estimated
Mon 04:11:00 PM 41.7585 28.2602 332° Northwest  Level Estimated
Mon 04:12:00 PM 41.8560 28.1891 332° Northwest  Level Estimated
Mon 04:13:00 PM 41.9535 28.1178 331° Northwest  Level Estimated
Mon 04:14:00 PM 42.0509 28.0463 331° Northwest  Level Estimated
Mon 04:15:00 PM 42.1483 27.9746 331° Northwest  Level Estimated
Mon 04:16:00 PM 42.2456 27.9026 331° Northwest  Level Estimated
Mon 04:17:00 PM 42.3429 27.8305 331° Northwest  Level Estimated
Mon 04:18:00 PM 42.4402 27.7581 331° Northwest  Level Estimated
Mon 04:19:00 PM 42.5374 27.6855 331° Northwest  Level Estimated
Mon 04:20:00 PM 42.6345 27.6126 331° Northwest  Level Estimated
Mon 04:21:00 PM 42.7316 27.5396 331° Northwest  Level Estimated
Mon 04:22:00 PM 42.8287 27.4662 331° Northwest  Level Estimated
Mon 04:23:00 PM 42.9257 27.3927 331° Northwest  Level Estimated
Mon 04:24:00 PM 43.0227 27.3190 331° Northwest  Level Estimated
Mon 04:25:00 PM 43.1196 27.2450 331° Northwest  Level Estimated
Mon 04:26:00 PM 43.2164 27.1707 331° Northwest  Level Estimated
Mon 04:27:00 PM 43.3133 27.0963 331° Northwest  Level Estimated
Mon 04:28:00 PM 43.4100 27.0215 331° Northwest  Level Estimated
Mon 04:29:00 PM 43.5068 26.9466 331° Northwest  Level Estimated
Mon 04:30:00 PM 43.6034 26.8714 331° Northwest  Level Estimated
Mon 04:31:00 PM 43.7001 26.7960 331° Northwest  Level Estimated
Mon 04:32:00 PM 43.7966 26.7203 331° Northwest  Level Estimated
Mon 04:33:00 PM 43.8932 26.6444 330° Northwest  Level Estimated
Mon 04:34:00 PM 43.9897 26.5682 330° Northwest  Level Estimated
Mon 04:35:00 PM 44.0861 26.4918 330° Northwest  Level Estimated
Mon 04:36:00 PM 44.1824 26.4152 330° Northwest  Level Estimated
Mon 04:37:00 PM 44.2788 26.3383 330° Northwest  Level Estimated
Mon 04:38:00 PM 44.3750 26.2611 330° Northwest  Level Estimated
Mon 04:39:00 PM 44.4712 26.1837 330° Northwest  Level Estimated
Mon 04:40:00 PM 44.5674 26.1060 330° Northwest  Level Estimated
Mon 04:41:00 PM 44.5722 26.1022 330° Northwest  Level Estimated
Mon 04:42:00 PM 44.5722 26.1022 119° Southeast  Level Estimated
Mon 04:43:00 PM 44.5722 26.1022 119° Southeast  Level Estimated
Mon 04:44:00 PM 44.5722 26.1022 119° Southeast  Level Estimated
Mon 04:45:00 PM 44.5722 26.1022 119° Southeast  Level Estimated
Mon 04:46:00 PM 44.5722 26.1022 119° Southeast  Level Estimated
Mon 04:47:00 PM 44.5722 26.1022 119° Southeast  Level Estimated
Mon 04:48:00 PM 44.5722 26.1022 119° Southeast  Level Estimated
Mon 04:49:00 PM 44.5722 26.1022 119° Southeast  Level Estimated
Mon 04:50:00 PM 44.5722 26.1022 119° Southeast  Level Estimated
Mon 04:51:00 PM 44.5722 26.1022 119° Southeast  Level Estimated
Mon 04:52:00 PM 44.5722 26.1022 119° Southeast  Level Estimated
Mon 04:53:00 PM 44.5722 26.1022 119° Southeast  Level Estimated
Mon 04:54:00 PM 44.5722 26.1022 119° Southeast  Level Estimated
Mon 04:55:00 PM 44.5722 26.1022 119° Southeast  Level Estimated
Mon 04:56:00 PM 44.5722 26.1022 119° Southeast  Level Estimated

Login

Don't have an account? Register now (free) for customized features, flight alerts, and more!